createdAt,value
2023-05-19T00:01:29.937Z,100.00
2023-05-19T00:06:34.111Z,100.00
2023-05-19T00:11:38.111Z,100.00
2023-05-19T00:16:43.242Z,100.00
2023-05-19T00:21:46.047Z,100.00
2023-05-19T00:26:48.818Z,100.00
2023-05-19T00:31:52.971Z,100.00
2023-05-19T00:36:55.786Z,100.00
2023-05-19T00:41:58.556Z,100.00
2023-05-19T00:47:02.822Z,100.00
2023-05-19T00:52:07.485Z,100.00
2023-05-19T00:57:10.420Z,100.00
2023-05-19T01:02:15.037Z,100.00
2023-05-19T01:07:18.716Z,100.00
2023-05-19T01:12:21.539Z,100.00
2023-05-19T01:17:34.316Z,100.00
2023-05-19T01:22:57.936Z,100.00
2023-05-19T01:28:30.796Z,100.00
2023-05-19T01:33:35.123Z,100.00
2023-05-19T01:38:39.410Z,100.00
2023-05-19T01:43:42.430Z,100.00
2023-05-19T01:48:46.741Z,100.00
2023-05-19T01:53:49.646Z,100.00
2023-05-19T01:58:54.715Z,100.00
2023-05-19T02:04:18.523Z,100.00
2023-05-19T02:09:26.655Z,100.00
2023-05-19T02:14:31.975Z,100.00
2023-05-19T02:19:39.194Z,100.00
2023-05-19T02:24:42.522Z,100.00
2023-05-19T02:29:45.565Z,100.00
2023-05-19T02:34:49.680Z,100.00
2023-05-19T02:39:52.458Z,100.00
2023-05-19T02:44:55.952Z,100.00
2023-05-19T02:50:00.037Z,100.00
2023-05-19T02:55:02.832Z,100.00
2023-05-19T03:00:06.900Z,100.00
2023-05-19T03:05:11.536Z,100.00
2023-05-19T03:10:14.351Z,100.00
2023-05-19T03:15:18.694Z,100.00
2023-05-19T03:20:23.009Z,100.00
2023-05-19T03:25:27.045Z,100.00
2023-05-19T03:30:30.076Z,100.00
2023-05-19T03:35:46.536Z,100.00
2023-05-19T03:40:50.087Z,100.00
2023-05-19T03:45:53.533Z,100.00
2023-05-19T03:51:28.637Z,100.00
2023-05-19T03:56:35.654Z,100.00
2023-05-19T04:01:38.441Z,100.00
2023-05-19T04:06:42.636Z,100.00
2023-05-19T04:11:46.066Z,100.00
2023-05-19T04:16:48.862Z,100.00
2023-05-19T04:21:53.034Z,100.00
2023-05-19T04:26:56.222Z,100.00
2023-05-19T04:31:59.098Z,100.00
2023-05-19T04:37:04.293Z,100.00
2023-05-19T04:42:08.973Z,100.00
2023-05-19T04:47:12.402Z,100.00
2023-05-19T04:52:21.715Z,100.00
2023-05-19T04:57:24.675Z,100.00
2023-05-19T05:02:28.333Z,100.00
2023-05-19T05:07:32.743Z,100.00
2023-05-19T05:12:36.457Z,100.00
2023-05-19T05:17:39.940Z,100.00
2023-05-19T05:22:44.874Z,100.00
2023-05-19T05:27:49.145Z,100.00
2023-05-19T05:32:52.151Z,100.00
2023-05-19T05:38:11.408Z,100.00
2023-05-19T05:43:14.578Z,100.00
2023-05-19T05:48:23.991Z,100.00
2023-05-19T05:53:32.044Z,100.00
2023-05-19T05:58:37.684Z,100.00
2023-05-19T06:03:41.734Z,100.00
2023-05-19T06:08:47.083Z,100.00
2023-05-19T06:13:50.191Z,100.00
2023-05-19T06:19:10.199Z,100.00
2023-05-19T06:24:14.424Z,100.00
2023-05-19T06:29:18.113Z,100.00
2023-05-19T06:34:21.314Z,100.00
2023-05-19T06:39:26.253Z,100.00
2023-05-19T06:44:29.483Z,100.00
2023-05-19T06:49:32.337Z,100.00
2023-05-19T06:54:36.580Z,100.00
2023-05-19T06:59:40.912Z,100.00
2023-05-19T07:04:44.293Z,100.00
2023-05-19T07:09:52.763Z,100.00
2023-05-19T07:14:57.258Z,100.00
2023-05-19T07:20:01.550Z,100.00
2023-05-19T07:25:06.541Z,100.00
2023-05-19T07:30:10.431Z,100.00
2023-05-19T07:35:13.217Z,100.00
2023-05-19T07:40:17.326Z,100.00
2023-05-19T07:45:20.118Z,100.00
2023-05-19T07:50:23.141Z,100.00
2023-05-19T07:55:27.273Z,100.00
2023-05-19T08:00:30.067Z,100.00
2023-05-19T08:05:32.857Z,100.00
2023-05-19T08:10:37.020Z,100.00
2023-05-19T08:15:41.137Z,100.00
2023-05-19T08:20:44.020Z,100.00
2023-05-19T08:25:48.117Z,100.00
2023-05-19T08:30:52.254Z,100.00
2023-05-19T08:35:55.419Z,100.00
2023-05-19T08:40:59.630Z,100.00
2023-05-19T08:46:02.446Z,100.00
2023-05-19T08:51:10.279Z,100.00
2023-05-19T08:56:16.353Z,100.00
2023-05-19T09:01:20.943Z,100.00
2023-05-19T09:06:24.099Z,100.00
2023-05-19T09:11:28.290Z,100.00
2023-05-19T09:16:32.475Z,100.00
2023-05-19T09:21:35.309Z,100.00
2023-05-19T09:26:40.301Z,100.00
2023-05-19T09:31:50.556Z,100.00
2023-05-19T09:36:54.224Z,100.00
2023-05-19T09:41:58.939Z,100.00
2023-05-19T09:47:02.201Z,100.00
2023-05-19T09:52:05.849Z,100.00
2023-05-19T09:57:09.998Z,100.00
2023-05-19T10:02:18.483Z,93.34
2023-05-19T10:07:22.144Z,87.92
2023-05-19T10:12:27.225Z,83.38
2023-05-19T10:17:30.082Z,80.97
2023-05-19T10:22:32.855Z,78.25
2023-05-19T10:27:38.748Z,71.55
2023-05-19T10:32:44.001Z,74.52
2023-05-19T10:37:50.980Z,73.44
2023-05-19T10:43:16.917Z,69.13
2023-05-19T10:48:21.540Z,68.46
2023-05-19T10:53:31.828Z,64.97
2023-05-19T10:58:40.209Z,66.15
2023-05-19T11:03:47.596Z,69.76
2023-05-19T11:08:54.517Z,70.68
2023-05-19T11:14:01.269Z,71.32
2023-05-19T11:19:04.166Z,67.71
2023-05-19T11:24:09.226Z,65.82
2023-05-19T11:29:13.630Z,67.04
2023-05-19T11:34:17.308Z,64.74
2023-05-19T11:39:20.533Z,60.36
2023-05-19T11:44:24.724Z,60.66
2023-05-19T11:49:29.353Z,58.46
2023-05-19T11:54:33.357Z,57.41
2023-05-19T11:59:43.767Z,57.62
2023-05-19T12:04:47.015Z,59.94
2023-05-19T12:09:50.861Z,58.08
2023-05-19T12:14:54.986Z,54.69
2023-05-19T12:19:57.823Z,56.18
2023-05-19T12:25:01.806Z,58.09
2023-05-19T12:30:07.002Z,55.16
2023-05-19T12:35:10.712Z,57.09
2023-05-19T12:40:17.505Z,56.12
2023-05-19T12:45:25.671Z,57.12
2023-05-19T12:50:31.481Z,58.34
2023-05-19T12:55:39.405Z,55.02
2023-05-19T13:00:44.940Z,53.91
2023-05-19T13:05:49.011Z,53.14
2023-05-19T13:10:51.901Z,51.96
2023-05-19T13:15:56.490Z,51.33
2023-05-19T13:20:59.292Z,52.28
2023-05-19T13:26:04.862Z,52.32
2023-05-19T13:31:09.021Z,51.99
2023-05-19T13:36:11.895Z,52.83
2023-05-19T13:41:16.065Z,51.86
2023-05-19T13:46:26.548Z,54.78
2023-05-19T13:51:35.772Z,54.73
2023-05-19T13:56:38.672Z,56.08
2023-05-19T14:01:43.461Z,55.72
2023-05-19T14:06:46.659Z,54.61
2023-05-19T14:11:49.630Z,55.34
2023-05-19T14:16:53.834Z,57.83
2023-05-19T14:21:56.898Z,55.47
2023-05-19T14:26:59.651Z,55.54
2023-05-19T14:32:03.982Z,54.85
2023-05-19T14:37:07.111Z,58.42
2023-05-19T14:42:09.904Z,57.42
2023-05-19T14:47:14.130Z,58.18
2023-05-19T14:52:17.820Z,58.78
2023-05-19T14:57:20.633Z,59.72
2023-05-19T15:02:25.064Z,58.74
2023-05-19T15:07:28.389Z,58.28
2023-05-19T15:12:31.210Z,60.29
2023-05-19T15:17:35.495Z,60.09
2023-05-19T15:22:38.283Z,60.99
2023-05-19T15:27:41.033Z,61.86
2023-05-19T15:32:45.198Z,60.76
2023-05-19T15:37:48.001Z,60.34
2023-05-19T15:42:50.751Z,61.31
2023-05-19T15:47:55.973Z,62.29
2023-05-19T15:52:58.867Z,63.89
2023-05-19T15:58:01.675Z,64.28
2023-05-19T16:03:05.972Z,64.89
2023-05-19T16:08:08.962Z,62.79
2023-05-19T16:13:11.895Z,61.88
2023-05-19T16:18:16.683Z,60.36
2023-05-19T16:23:19.483Z,61.43
2023-05-19T16:28:24.760Z,63.44
2023-05-19T16:33:30.056Z,63.39
2023-05-19T16:38:33.961Z,64.07
2023-05-19T16:43:37.090Z,64.27
2023-05-19T16:48:41.226Z,67.35
2023-05-19T16:53:43.987Z,65.03
2023-05-19T16:58:46.851Z,64.53
2023-05-19T17:03:51.014Z,66.09
2023-05-19T17:08:53.857Z,68.13
2023-05-19T17:13:56.630Z,68.05
2023-05-19T17:19:00.912Z,68.98
2023-05-19T17:24:03.694Z,71.94
2023-05-19T17:29:06.632Z,72.73
2023-05-19T17:34:10.744Z,74.54
2023-05-19T17:39:13.545Z,74.61
2023-05-19T17:44:16.360Z,76.32
2023-05-19T17:49:22.931Z,81.17
2023-05-19T17:54:27.367Z,82.48
2023-05-19T17:59:31.299Z,85.19
2023-05-19T18:04:36.385Z,84.88
2023-05-19T18:09:39.802Z,83.46
2023-05-19T18:14:42.568Z,86.44
2023-05-19T18:19:46.740Z,88.53
2023-05-19T18:24:49.530Z,92.49
2023-05-19T18:29:52.301Z,96.54
2023-05-19T18:34:56.470Z,99.06
2023-05-19T18:39:59.275Z,100.00
2023-05-19T18:45:02.096Z,100.00
2023-05-19T18:50:08.088Z,100.00
2023-05-19T18:55:11.303Z,100.00
2023-05-19T19:00:14.964Z,100.00
2023-05-19T19:05:19.285Z,100.00
2023-05-19T19:10:22.096Z,100.00
2023-05-19T19:15:25.408Z,100.00
2023-05-19T19:20:29.635Z,100.00
2023-05-19T19:25:32.446Z,100.00
2023-05-19T19:30:35.682Z,100.00
2023-05-19T19:35:40.062Z,100.00
2023-05-19T19:40:42.856Z,100.00
2023-05-19T19:45:45.655Z,100.00
2023-05-19T19:50:54.658Z,100.00
2023-05-19T19:55:58.779Z,100.00
2023-05-19T20:01:03.677Z,100.00
2023-05-19T20:06:07.914Z,100.00
2023-05-19T20:11:10.850Z,100.00
2023-05-19T20:16:13.697Z,100.00
2023-05-19T20:21:18.136Z,100.00
2023-05-19T20:26:22.441Z,100.00
2023-05-19T20:31:25.848Z,100.00
2023-05-19T20:36:30.066Z,100.00
2023-05-19T20:41:32.876Z,100.00
2023-05-19T20:46:35.684Z,100.00
2023-05-19T20:51:39.894Z,100.00
2023-05-19T20:56:42.713Z,100.00
2023-05-19T21:01:46.568Z,100.00
2023-05-19T21:06:50.901Z,100.00
2023-05-19T21:11:54.166Z,100.00
2023-05-19T21:16:57.281Z,100.00
2023-05-19T21:22:01.550Z,100.00
2023-05-19T21:27:04.479Z,100.00
2023-05-19T21:32:07.943Z,100.00
2023-05-19T21:37:12.165Z,100.00
2023-05-19T21:42:15.056Z,100.00
2023-05-19T21:47:17.970Z,100.00
2023-05-19T21:52:22.745Z,100.00
2023-05-19T21:57:25.546Z,100.00
2023-05-19T22:02:28.370Z,100.00
2023-05-19T22:07:32.592Z,100.00
2023-05-19T22:12:35.460Z,100.00
2023-05-19T22:17:38.300Z,100.00
2023-05-19T22:22:42.475Z,100.00
2023-05-19T22:27:45.231Z,100.00
2023-05-19T22:32:48.002Z,100.00
2023-05-19T22:37:52.162Z,100.00
2023-05-19T22:42:54.923Z,100.00
2023-05-19T22:47:57.734Z,100.00
2023-05-19T22:53:01.868Z,100.00
2023-05-19T22:58:04.688Z,100.00
2023-05-19T23:03:07.512Z,100.00
2023-05-19T23:08:11.700Z,100.00
2023-05-19T23:13:15.918Z,100.00
2023-05-19T23:18:18.736Z,100.00
2023-05-19T23:23:22.933Z,100.00
2023-05-19T23:28:25.747Z,100.00
2023-05-19T23:33:28.594Z,100.00
2023-05-19T23:38:32.786Z,100.00
2023-05-19T23:43:35.844Z,100.00
2023-05-19T23:48:39.358Z,100.00
2023-05-19T23:53:43.508Z,100.00
2023-05-19T23:58:46.455Z,100.00
